sensor_id;sensor_type;location;lat;lon;timestamp;temperature;humidity
35373;DHT22;21476;51.652;7.852;2022-07-10T00:02:09;14.70;99.90
35373;DHT22;21476;51.652;7.852;2022-07-10T00:04:35;14.80;99.90
35373;DHT22;21476;51.652;7.852;2022-07-10T00:07:00;14.80;99.90
35373;DHT22;21476;51.652;7.852;2022-07-10T00:09:27;14.80;99.90
35373;DHT22;21476;51.652;7.852;2022-07-10T00:11:53;14.80;99.90
35373;DHT22;21476;51.652;7.852;2022-07-10T00:14:19;14.80;99.90
35373;DHT22;21476;51.652;7.852;2022-07-10T00:16:45;14.70;99.90
35373;DHT22;21476;51.652;7.852;2022-07-10T00:19:11;14.70;99.90
35373;DHT22;21476;51.652;7.852;2022-07-10T00:21:37;14.70;99.90
35373;DHT22;21476;51.652;7.852;2022-07-10T00:24:04;14.80;99.90
35373;DHT22;21476;51.652;7.852;2022-07-10T00:26:29;14.80;99.90
35373;DHT22;21476;51.652;7.852;2022-07-10T00:28:55;14.80;99.90
35373;DHT22;21476;51.652;7.852;2022-07-10T00:31:21;14.70;99.90
35373;DHT22;21476;51.652;7.852;2022-07-10T00:33:47;14.70;99.90
35373;DHT22;21476;51.652;7.852;2022-07-10T00:36:16;14.80;99.90
35373;DHT22;21476;51.652;7.852;2022-07-10T00:38:42;14.70;99.90
35373;DHT22;21476;51.652;7.852;2022-07-10T00:41:07;14.70;99.90
35373;DHT22;21476;51.652;7.852;2022-07-10T00:43:56;14.60;99.90
35373;DHT22;21476;51.652;7.852;2022-07-10T00:46:25;14.70;99.90
35373;DHT22;21476;51.652;7.852;2022-07-10T00:48:52;14.70;99.90
35373;DHT22;21476;51.652;7.852;2022-07-10T00:51:20;14.60;99.90
35373;DHT22;21476;51.652;7.852;2022-07-10T00:53:46;14.70;99.90
35373;DHT22;21476;51.652;7.852;2022-07-10T00:56:16;14.60;99.90
35373;DHT22;21476;51.652;7.852;2022-07-10T00:58:43;14.60;99.90
35373;DHT22;21476;51.652;7.852;2022-07-10T01:01:09;14.60;99.90
35373;DHT22;21476;51.652;7.852;2022-07-10T01:03:35;14.60;99.90
35373;DHT22;21476;51.652;7.852;2022-07-10T01:06:02;14.50;99.90
35373;DHT22;21476;51.652;7.852;2022-07-10T01:08:28;14.50;99.90
35373;DHT22;21476;51.652;7.852;2022-07-10T01:10:54;14.60;99.90
35373;DHT22;21476;51.652;7.852;2022-07-10T01:13:19;14.50;99.90
35373;DHT22;21476;51.652;7.852;2022-07-10T01:15:46;14.50;99.90
35373;DHT22;21476;51.652;7.852;2022-07-10T01:18:13;14.50;99.90
35373;DHT22;21476;51.652;7.852;2022-07-10T01:20:38;14.50;99.90
35373;DHT22;21476;51.652;7.852;2022-07-10T01:23:04;14.60;99.90
35373;DHT22;21476;51.652;7.852;2022-07-10T01:25:30;14.60;99.90
35373;DHT22;21476;51.652;7.852;2022-07-10T01:27:55;14.50;99.90
35373;DHT22;21476;51.652;7.852;2022-07-10T01:30:21;14.50;99.90
35373;DHT22;21476;51.652;7.852;2022-07-10T01:32:47;14.60;99.90
35373;DHT22;21476;51.652;7.852;2022-07-10T01:35:13;14.50;99.90
35373;DHT22;21476;51.652;7.852;2022-07-10T01:37:40;14.40;99.90
35373;DHT22;21476;51.652;7.852;2022-07-10T01:40:07;14.40;99.90
35373;DHT22;21476;51.652;7.852;2022-07-10T01:42:32;14.50;99.90
35373;DHT22;21476;51.652;7.852;2022-07-10T01:44:58;14.40;99.90
35373;DHT22;21476;51.652;7.852;2022-07-10T01:47:24;14.40;99.90
35373;DHT22;21476;51.652;7.852;2022-07-10T01:49:51;14.40;99.90
35373;DHT22;21476;51.652;7.852;2022-07-10T01:52:18;14.40;99.90
35373;DHT22;21476;51.652;7.852;2022-07-10T01:54:45;14.40;99.90
35373;DHT22;21476;51.652;7.852;2022-07-10T01:57:11;14.40;99.90
35373;DHT22;21476;51.652;7.852;2022-07-10T01:59:36;14.40;99.90
35373;DHT22;21476;51.652;7.852;2022-07-10T02:02:02;14.30;99.90
35373;DHT22;21476;51.652;7.852;2022-07-10T02:04:28;14.40;99.90
35373;DHT22;21476;51.652;7.852;2022-07-10T02:07:14;14.40;99.90
35373;DHT22;21476;51.652;7.852;2022-07-10T02:09:41;14.30;99.90
35373;DHT22;21476;51.652;7.852;2022-07-10T02:12:12;14.30;99.90
35373;DHT22;21476;51.652;7.852;2022-07-10T02:14:39;14.30;99.90
35373;DHT22;21476;51.652;7.852;2022-07-10T02:17:06;14.40;99.90
35373;DHT22;21476;51.652;7.852;2022-07-10T02:19:31;14.40;99.90
35373;DHT22;21476;51.652;7.852;2022-07-10T02:21:57;14.40;99.90
35373;DHT22;21476;51.652;7.852;2022-07-10T02:24:23;14.40;99.90
35373;DHT22;21476;51.652;7.852;2022-07-10T02:26:49;14.40;99.90
35373;DHT22;21476;51.652;7.852;2022-07-10T02:29:15;14.40;99.90
35373;DHT22;21476;51.652;7.852;2022-07-10T02:31:41;14.40;99.90
35373;DHT22;21476;51.652;7.852;2022-07-10T02:34:11;14.40;99.90
35373;DHT22;21476;51.652;7.852;2022-07-10T02:36:38;14.40;99.90
35373;DHT22;21476;51.652;7.852;2022-07-10T02:39:05;14.40;99.90
35373;DHT22;21476;51.652;7.852;2022-07-10T02:41:31;14.30;99.90
35373;DHT22;21476;51.652;7.852;2022-07-10T02:43:57;14.30;99.90
35373;DHT22;21476;51.652;7.852;2022-07-10T02:46:24;14.20;99.90
35373;DHT22;21476;51.652;7.852;2022-07-10T02:48:50;14.30;99.90
35373;DHT22;21476;51.652;7.852;2022-07-10T02:51:16;14.20;99.90
35373;DHT22;21476;51.652;7.852;2022-07-10T02:53:41;14.40;99.90
35373;DHT22;21476;51.652;7.852;2022-07-10T02:56:07;14.30;99.90
35373;DHT22;21476;51.652;7.852;2022-07-10T02:58:33;14.40;99.90
35373;DHT22;21476;51.652;7.852;2022-07-10T03:00:59;14.30;99.90
35373;DHT22;21476;51.652;7.852;2022-07-10T03:03:25;14.30;99.90
35373;DHT22;21476;51.652;7.852;2022-07-10T03:05:51;14.30;99.90
35373;DHT22;21476;51.652;7.852;2022-07-10T03:08:16;14.20;99.90
35373;DHT22;21476;51.652;7.852;2022-07-10T03:10:42;14.30;99.90
35373;DHT22;21476;51.652;7.852;2022-07-10T03:13:07;14.20;99.90
35373;DHT22;21476;51.652;7.852;2022-07-10T03:15:33;14.20;99.90
35373;DHT22;21476;51.652;7.852;2022-07-10T03:17:59;14.20;99.90
35373;DHT22;21476;51.652;7.852;2022-07-10T03:20:25;14.20;99.90
35373;DHT22;21476;51.652;7.852;2022-07-10T03:22:51;14.30;99.90
35373;DHT22;21476;51.652;7.852;2022-07-10T03:25:17;14.30;99.90
35373;DHT22;21476;51.652;7.852;2022-07-10T03:27:42;14.30;99.90
35373;DHT22;21476;51.652;7.852;2022-07-10T03:30:08;14.30;99.90
35373;DHT22;21476;51.652;7.852;2022-07-10T03:32:34;14.20;99.90
35373;DHT22;21476;51.652;7.852;2022-07-10T03:35:00;14.20;99.90
35373;DHT22;21476;51.652;7.852;2022-07-10T03:37:26;14.20;99.90
35373;DHT22;21476;51.652;7.852;2022-07-10T03:39:51;14.20;99.90
35373;DHT22;21476;51.652;7.852;2022-07-10T03:42:17;14.20;99.90
35373;DHT22;21476;51.652;7.852;2022-07-10T03:44:43;14.10;99.90
35373;DHT22;21476;51.652;7.852;2022-07-10T03:47:09;14.10;99.90
35373;DHT22;21476;51.652;7.852;2022-07-10T03:49:36;14.20;99.90
35373;DHT22;21476;51.652;7.852;2022-07-10T03:52:04;14.20;99.90
35373;DHT22;21476;51.652;7.852;2022-07-10T03:54:31;14.20;99.90
35373;DHT22;21476;51.652;7.852;2022-07-10T03:56:57;14.20;99.90
35373;DHT22;21476;51.652;7.852;2022-07-10T03:59:42;14.20;99.90
35373;DHT22;21476;51.652;7.852;2022-07-10T04:02:08;14.30;99.90
35373;DHT22;21476;51.652;7.852;2022-07-10T04:04:33;14.30;99.90
35373;DHT22;21476;51.652;7.852;2022-07-10T04:06:59;14.20;99.90
35373;DHT22;21476;51.652;7.852;2022-07-10T04:09:25;14.20;99.90
35373;DHT22;21476;51.652;7.852;2022-07-10T04:11:50;14.30;99.90
35373;DHT22;21476;51.652;7.852;2022-07-10T04:14:16;14.30;99.90
35373;DHT22;21476;51.652;7.852;2022-07-10T04:16:42;14.40;99.90
35373;DHT22;21476;51.652;7.852;2022-07-10T04:19:07;14.30;99.90
35373;DHT22;21476;51.652;7.852;2022-07-10T04:21:33;14.30;99.90
35373;DHT22;21476;51.652;7.852;2022-07-10T04:23:59;14.30;99.90
35373;DHT22;21476;51.652;7.852;2022-07-10T04:26:25;14.30;99.90
35373;DHT22;21476;51.652;7.852;2022-07-10T04:28:50;14.30;99.90
35373;DHT22;21476;51.652;7.852;2022-07-10T04:31:16;14.30;99.90
35373;DHT22;21476;51.652;7.852;2022-07-10T04:33:42;14.30;99.90
35373;DHT22;21476;51.652;7.852;2022-07-10T04:36:07;14.40;99.90
35373;DHT22;21476;51.652;7.852;2022-07-10T04:38:33;14.40;99.90
35373;DHT22;21476;51.652;7.852;2022-07-10T04:40:59;14.40;99.90
35373;DHT22;21476;51.652;7.852;2022-07-10T04:43:25;14.40;99.90
35373;DHT22;21476;51.652;7.852;2022-07-10T04:45:51;14.30;99.90
35373;DHT22;21476;51.652;7.852;2022-07-10T04:48:16;14.30;99.90
35373;DHT22;21476;51.652;7.852;2022-07-10T04:50:42;14.40;99.90
35373;DHT22;21476;51.652;7.852;2022-07-10T04:53:07;14.50;99.90
35373;DHT22;21476;51.652;7.852;2022-07-10T04:55:33;14.60;99.90
35373;DHT22;21476;51.652;7.852;2022-07-10T04:57:59;14.60;99.90
35373;DHT22;21476;51.652;7.852;2022-07-10T05:00:25;14.50;99.90
35373;DHT22;21476;51.652;7.852;2022-07-10T05:02:50;14.50;99.90
35373;DHT22;21476;51.652;7.852;2022-07-10T05:05:16;14.60;99.90
35373;DHT22;21476;51.652;7.852;2022-07-10T05:07:42;14.50;99.90
35373;DHT22;21476;51.652;7.852;2022-07-10T05:10:08;14.40;99.90
35373;DHT22;21476;51.652;7.852;2022-07-10T05:12:34;14.50;99.90
35373;DHT22;21476;51.652;7.852;2022-07-10T05:15:00;14.50;99.90
35373;DHT22;21476;51.652;7.852;2022-07-10T05:17:27;14.50;99.90
35373;DHT22;21476;51.652;7.852;2022-07-10T05:19:54;14.70;99.90
35373;DHT22;21476;51.652;7.852;2022-07-10T05:22:21;14.80;99.90
35373;DHT22;21476;51.652;7.852;2022-07-10T05:24:47;15.00;99.90
35373;DHT22;21476;51.652;7.852;2022-07-10T05:27:13;15.10;99.90
35373;DHT22;21476;51.652;7.852;2022-07-10T05:29:39;15.20;99.90
35373;DHT22;21476;51.652;7.852;2022-07-10T05:32:04;15.30;99.90
35373;DHT22;21476;51.652;7.852;2022-07-10T05:34:30;15.30;99.90
35373;DHT22;21476;51.652;7.852;2022-07-10T05:36:56;15.30;99.90
35373;DHT22;21476;51.652;7.852;2022-07-10T05:39:22;15.30;99.90
35373;DHT22;21476;51.652;7.852;2022-07-10T05:41:51;15.40;99.90
35373;DHT22;21476;51.652;7.852;2022-07-10T05:44:16;15.50;99.90
35373;DHT22;21476;51.652;7.852;2022-07-10T05:46:45;15.50;99.90
35373;DHT22;21476;51.652;7.852;2022-07-10T05:49:11;15.60;99.90
35373;DHT22;21476;51.652;7.852;2022-07-10T05:51:36;15.60;99.90
35373;DHT22;21476;51.652;7.852;2022-07-10T05:54:02;15.70;99.90
35373;DHT22;21476;51.652;7.852;2022-07-10T05:56:29;15.70;99.90
35373;DHT22;21476;51.652;7.852;2022-07-10T05:58:54;15.80;99.90
35373;DHT22;21476;51.652;7.852;2022-07-10T06:01:23;15.80;99.90
35373;DHT22;21476;51.652;7.852;2022-07-10T06:03:49;15.90;99.90
35373;DHT22;21476;51.652;7.852;2022-07-10T06:06:15;16.00;99.90
35373;DHT22;21476;51.652;7.852;2022-07-10T06:08:44;16.10;99.90
35373;DHT22;21476;51.652;7.852;2022-07-10T06:11:11;16.20;99.90
35373;DHT22;21476;51.652;7.852;2022-07-10T06:13:37;16.40;99.90
35373;DHT22;21476;51.652;7.852;2022-07-10T06:16:03;16.60;99.90
35373;DHT22;21476;51.652;7.852;2022-07-10T06:18:33;16.60;99.90
35373;DHT22;21476;51.652;7.852;2022-07-10T06:20:59;16.60;99.90
35373;DHT22;21476;51.652;7.852;2022-07-10T06:23:24;16.60;99.90
35373;DHT22;21476;51.652;7.852;2022-07-10T06:25:50;16.60;99.90
35373;DHT22;21476;51.652;7.852;2022-07-10T06:28:16;16.70;99.90
35373;DHT22;21476;51.652;7.852;2022-07-10T06:30:42;16.80;99.90
35373;DHT22;21476;51.652;7.852;2022-07-10T06:33:08;16.90;99.90
35373;DHT22;21476;51.652;7.852;2022-07-10T06:35:34;17.00;99.90
35373;DHT22;21476;51.652;7.852;2022-07-10T06:38:00;17.30;99.90
35373;DHT22;21476;51.652;7.852;2022-07-10T06:40:26;17.40;99.90
35373;DHT22;21476;51.652;7.852;2022-07-10T06:42:52;18.60;99.90
35373;DHT22;21476;51.652;7.852;2022-07-10T06:45:18;19.20;99.90
35373;DHT22;21476;51.652;7.852;2022-07-10T06:47:44;19.20;99.90
35373;DHT22;21476;51.652;7.852;2022-07-10T06:50:26;19.80;99.90
35373;DHT22;21476;51.652;7.852;2022-07-10T06:52:55;20.30;99.90
35373;DHT22;21476;51.652;7.852;2022-07-10T06:55:21;20.50;99.90
35373;DHT22;21476;51.652;7.852;2022-07-10T06:57:47;21.00;99.90
35373;DHT22;21476;51.652;7.852;2022-07-10T07:00:12;20.80;99.90
35373;DHT22;21476;51.652;7.852;2022-07-10T07:02:38;20.30;99.90
35373;DHT22;21476;51.652;7.852;2022-07-10T07:05:05;20.60;99.90
35373;DHT22;21476;51.652;7.852;2022-07-10T07:07:31;21.10;99.90
35373;DHT22;21476;51.652;7.852;2022-07-10T07:09:57;21.30;99.90
35373;DHT22;21476;51.652;7.852;2022-07-10T07:12:23;20.50;99.90
35373;DHT22;21476;51.652;7.852;2022-07-10T07:14:48;20.10;99.90
35373;DHT22;21476;51.652;7.852;2022-07-10T07:17:14;19.80;99.90
35373;DHT22;21476;51.652;7.852;2022-07-10T07:19:47;19.70;99.90
35373;DHT22;21476;51.652;7.852;2022-07-10T07:22:31;19.50;99.90
35373;DHT22;21476;51.652;7.852;2022-07-10T07:25:15;19.40;99.90
35373;DHT22;21476;51.652;7.852;2022-07-10T07:27:41;19.40;99.90
35373;DHT22;21476;51.652;7.852;2022-07-10T07:30:09;19.50;99.90
35373;DHT22;21476;51.652;7.852;2022-07-10T07:32:38;19.60;99.90
35373;DHT22;21476;51.652;7.852;2022-07-10T07:35:05;19.40;99.90
35373;DHT22;21476;51.652;7.852;2022-07-10T07:40:01;19.40;99.90
35373;DHT22;21476;51.652;7.852;2022-07-10T07:42:27;19.30;99.90
35373;DHT22;21476;51.652;7.852;2022-07-10T07:44:52;19.20;99.90
35373;DHT22;21476;51.652;7.852;2022-07-10T07:47:18;19.30;99.90
35373;DHT22;21476;51.652;7.852;2022-07-10T07:49:43;19.50;99.90
35373;DHT22;21476;51.652;7.852;2022-07-10T07:52:09;19.80;99.90
35373;DHT22;21476;51.652;7.852;2022-07-10T07:54:35;19.80;99.90
35373;DHT22;21476;51.652;7.852;2022-07-10T07:57:00;19.70;99.90
35373;DHT22;21476;51.652;7.852;2022-07-10T07:59:26;19.40;99.90
35373;DHT22;21476;51.652;7.852;2022-07-10T08:01:51;19.00;99.90
35373;DHT22;21476;51.652;7.852;2022-07-10T08:04:17;18.70;99.90
35373;DHT22;21476;51.652;7.852;2022-07-10T08:06:43;18.40;99.90
35373;DHT22;21476;51.652;7.852;2022-07-10T08:09:08;18.20;99.90
35373;DHT22;21476;51.652;7.852;2022-07-10T08:11:34;17.80;99.90
35373;DHT22;21476;51.652;7.852;2022-07-10T08:14:00;17.60;99.90
35373;DHT22;21476;51.652;7.852;2022-07-10T08:16:25;17.50;99.90
35373;DHT22;21476;51.652;7.852;2022-07-10T08:18:51;17.50;99.90
35373;DHT22;21476;51.652;7.852;2022-07-10T08:21:16;17.30;99.90
35373;DHT22;21476;51.652;7.852;2022-07-10T08:23:42;17.30;99.90
35373;DHT22;21476;51.652;7.852;2022-07-10T08:26:08;17.10;99.90
35373;DHT22;21476;51.652;7.852;2022-07-10T08:28:33;17.10;99.90
35373;DHT22;21476;51.652;7.852;2022-07-10T08:30:59;17.00;99.90
35373;DHT22;21476;51.652;7.852;2022-07-10T08:33:25;17.10;99.90
35373;DHT22;21476;51.652;7.852;2022-07-10T08:35:50;17.40;99.90
35373;DHT22;21476;51.652;7.852;2022-07-10T08:38:16;17.50;99.90
35373;DHT22;21476;51.652;7.852;2022-07-10T08:40:42;17.40;99.90
35373;DHT22;21476;51.652;7.852;2022-07-10T08:43:08;17.60;99.90
35373;DHT22;21476;51.652;7.852;2022-07-10T08:45:34;17.60;99.90
35373;DHT22;21476;51.652;7.852;2022-07-10T08:48:04;17.60;99.90
35373;DHT22;21476;51.652;7.852;2022-07-10T08:50:33;17.70;99.90
35373;DHT22;21476;51.652;7.852;2022-07-10T08:53:12;17.80;99.90
35373;DHT22;21476;51.652;7.852;2022-07-10T08:55:39;17.80;99.90
35373;DHT22;21476;51.652;7.852;2022-07-10T08:58:06;17.80;99.90
35373;DHT22;21476;51.652;7.852;2022-07-10T09:00:33;17.70;99.90
35373;DHT22;21476;51.652;7.852;2022-07-10T09:02:59;17.90;99.90
35373;DHT22;21476;51.652;7.852;2022-07-10T09:05:25;18.00;99.90
35373;DHT22;21476;51.652;7.852;2022-07-10T09:07:52;18.10;99.90
35373;DHT22;21476;51.652;7.852;2022-07-10T09:10:21;18.00;99.90
35373;DHT22;21476;51.652;7.852;2022-07-10T09:13:02;18.10;99.90
35373;DHT22;21476;51.652;7.852;2022-07-10T09:15:29;18.20;99.90
35373;DHT22;21476;51.652;7.852;2022-07-10T09:18:03;18.00;99.90
35373;DHT22;21476;51.652;7.852;2022-07-10T09:20:35;18.00;99.90
35373;DHT22;21476;51.652;7.852;2022-07-10T09:23:21;18.10;99.90
35373;DHT22;21476;51.652;7.852;2022-07-10T09:25:49;18.20;99.90
35373;DHT22;21476;51.652;7.852;2022-07-10T09:28:22;18.00;99.90
35373;DHT22;21476;51.652;7.852;2022-07-10T09:30:49;18.00;99.90
35373;DHT22;21476;51.652;7.852;2022-07-10T09:33:31;17.90;99.90
35373;DHT22;21476;51.652;7.852;2022-07-10T09:36:10;17.80;99.90
35373;DHT22;21476;51.652;7.852;2022-07-10T09:43:54;17.60;99.90
35373;DHT22;21476;51.652;7.852;2022-07-10T09:46:31;17.50;99.90
35373;DHT22;21476;51.652;7.852;2022-07-10T09:51:53;17.30;99.90
35373;DHT22;21476;51.652;7.852;2022-07-10T09:54:18;17.40;99.90
35373;DHT22;21476;51.652;7.852;2022-07-10T09:56:48;17.40;99.90
35373;DHT22;21476;51.652;7.852;2022-07-10T09:59:18;17.50;99.90
35373;DHT22;21476;51.652;7.852;2022-07-10T10:01:48;17.40;99.90
35373;DHT22;21476;51.652;7.852;2022-07-10T10:04:16;17.60;99.90
35373;DHT22;21476;51.652;7.852;2022-07-10T10:06:43;18.00;99.90
35373;DHT22;21476;51.652;7.852;2022-07-10T10:09:26;18.30;99.90
35373;DHT22;21476;51.652;7.852;2022-07-10T10:11:59;18.80;99.90
35373;DHT22;21476;51.652;7.852;2022-07-10T10:14:28;19.50;99.90
35373;DHT22;21476;51.652;7.852;2022-07-10T10:16:55;19.70;99.90
35373;DHT22;21476;51.652;7.852;2022-07-10T10:19:23;20.00;99.90
35373;DHT22;21476;51.652;7.852;2022-07-10T10:22:08;20.10;99.90
35373;DHT22;21476;51.652;7.852;2022-07-10T10:24:36;19.90;99.90
35373;DHT22;21476;51.652;7.852;2022-07-10T10:27:05;19.90;99.90
35373;DHT22;21476;51.652;7.852;2022-07-10T10:29:34;19.90;99.90
35373;DHT22;21476;51.652;7.852;2022-07-10T10:32:01;19.60;99.90
35373;DHT22;21476;51.652;7.852;2022-07-10T10:34:46;19.40;99.90
35373;DHT22;21476;51.652;7.852;2022-07-10T10:37:39;19.10;99.90
35373;DHT22;21476;51.652;7.852;2022-07-10T10:40:11;19.00;99.90
35373;DHT22;21476;51.652;7.852;2022-07-10T10:42:55;18.70;99.90
35373;DHT22;21476;51.652;7.852;2022-07-10T10:45:24;18.80;99.90
35373;DHT22;21476;51.652;7.852;2022-07-10T10:48:09;18.80;99.90
35373;DHT22;21476;51.652;7.852;2022-07-10T10:50:40;18.80;99.90
35373;DHT22;21476;51.652;7.852;2022-07-10T10:53:27;18.80;99.90
35373;DHT22;21476;51.652;7.852;2022-07-10T10:58:48;18.70;99.90
35373;DHT22;21476;51.652;7.852;2022-07-10T11:09:29;18.80;99.90
35373;DHT22;21476;51.652;7.852;2022-07-10T11:14:35;18.40;99.90
35373;DHT22;21476;51.652;7.852;2022-07-10T11:17:02;18.40;99.90
35373;DHT22;21476;51.652;7.852;2022-07-10T11:19:29;18.50;99.90
35373;DHT22;21476;51.652;7.852;2022-07-10T11:25:15;18.30;99.90
35373;DHT22;21476;51.652;7.852;2022-07-10T11:30:22;18.60;99.90
35373;DHT22;21476;51.652;7.852;2022-07-10T11:32:48;18.60;99.90
35373;DHT22;21476;51.652;7.852;2022-07-10T11:35:16;18.80;99.90
35373;DHT22;21476;51.652;7.852;2022-07-10T11:37:53;19.00;99.90
35373;DHT22;21476;51.652;7.852;2022-07-10T11:40:19;19.10;99.90
35373;DHT22;21476;51.652;7.852;2022-07-10T11:42:55;19.30;99.90
35373;DHT22;21476;51.652;7.852;2022-07-10T11:45:32;19.30;99.90
35373;DHT22;21476;51.652;7.852;2022-07-10T11:47:59;19.00;99.90
35373;DHT22;21476;51.652;7.852;2022-07-10T11:50:26;18.60;99.90
35373;DHT22;21476;51.652;7.852;2022-07-10T11:52:52;18.40;99.90
35373;DHT22;21476;51.652;7.852;2022-07-10T11:55:22;18.00;99.90
35373;DHT22;21476;51.652;7.852;2022-07-10T11:57:48;17.80;99.90
35373;DHT22;21476;51.652;7.852;2022-07-10T12:02:49;17.60;99.90
35373;DHT22;21476;51.652;7.852;2022-07-10T12:05:37;17.60;99.90
35373;DHT22;21476;51.652;7.852;2022-07-10T12:08:03;17.70;99.90
35373;DHT22;21476;51.652;7.852;2022-07-10T12:10:30;17.60;99.90
35373;DHT22;21476;51.652;7.852;2022-07-10T12:13:07;17.60;99.90
35373;DHT22;21476;51.652;7.852;2022-07-10T12:15:41;17.60;99.90
35373;DHT22;21476;51.652;7.852;2022-07-10T12:18:18;17.40;99.90
35373;DHT22;21476;51.652;7.852;2022-07-10T12:20:45;17.60;99.90
35373;DHT22;21476;51.652;7.852;2022-07-10T12:23:17;17.70;99.90
35373;DHT22;21476;51.652;7.852;2022-07-10T12:25:45;17.70;99.90
35373;DHT22;21476;51.652;7.852;2022-07-10T12:28:11;17.70;99.90
35373;DHT22;21476;51.652;7.852;2022-07-10T12:33:23;17.90;99.90
35373;DHT22;21476;51.652;7.852;2022-07-10T12:35:54;18.10;99.90
35373;DHT22;21476;51.652;7.852;2022-07-10T12:38:26;18.50;99.90
35373;DHT22;21476;51.652;7.852;2022-07-10T12:41:10;18.80;99.90
35373;DHT22;21476;51.652;7.852;2022-07-10T12:43:36;18.90;99.90
35373;DHT22;21476;51.652;7.852;2022-07-10T12:49:05;19.00;99.90
35373;DHT22;21476;51.652;7.852;2022-07-10T12:51:33;19.30;99.90
35373;DHT22;21476;51.652;7.852;2022-07-10T12:53:59;19.20;99.90
35373;DHT22;21476;51.652;7.852;2022-07-10T12:56:34;19.50;99.90
35373;DHT22;21476;51.652;7.852;2022-07-10T12:59:02;19.70;99.90
35373;DHT22;21476;51.652;7.852;2022-07-10T13:01:29;20.10;99.90
35373;DHT22;21476;51.652;7.852;2022-07-10T13:04:04;20.10;99.90
35373;DHT22;21476;51.652;7.852;2022-07-10T13:06:32;20.00;99.90
35373;DHT22;21476;51.652;7.852;2022-07-10T13:08:58;19.90;99.90
35373;DHT22;21476;51.652;7.852;2022-07-10T13:11:24;19.70;99.90
35373;DHT22;21476;51.652;7.852;2022-07-10T13:13:50;19.70;99.90
35373;DHT22;21476;51.652;7.852;2022-07-10T13:16:15;19.60;99.90
35373;DHT22;21476;51.652;7.852;2022-07-10T13:18:44;19.40;99.90
35373;DHT22;21476;51.652;7.852;2022-07-10T13:21:10;19.40;99.90
35373;DHT22;21476;51.652;7.852;2022-07-10T13:23:36;19.30;99.90
35373;DHT22;21476;51.652;7.852;2022-07-10T13:26:03;19.20;99.90
35373;DHT22;21476;51.652;7.852;2022-07-10T13:28:29;18.90;99.90
35373;DHT22;21476;51.652;7.852;2022-07-10T13:30:55;18.70;99.90
35373;DHT22;21476;51.652;7.852;2022-07-10T13:33:21;18.60;99.90
35373;DHT22;21476;51.652;7.852;2022-07-10T13:35:48;18.60;99.90
35373;DHT22;21476;51.652;7.852;2022-07-10T13:38:14;18.70;99.90
35373;DHT22;21476;51.652;7.852;2022-07-10T13:40:43;18.90;99.90
35373;DHT22;21476;51.652;7.852;2022-07-10T13:43:09;19.20;99.90
35373;DHT22;21476;51.652;7.852;2022-07-10T13:45:36;19.50;99.90
35373;DHT22;21476;51.652;7.852;2022-07-10T13:48:14;19.70;99.90
35373;DHT22;21476;51.652;7.852;2022-07-10T13:50:41;20.00;99.90
35373;DHT22;21476;51.652;7.852;2022-07-10T13:53:07;20.00;99.90
35373;DHT22;21476;51.652;7.852;2022-07-10T13:55:33;19.90;99.90
35373;DHT22;21476;51.652;7.852;2022-07-10T13:57:59;19.90;99.90
35373;DHT22;21476;51.652;7.852;2022-07-10T14:00:25;19.80;99.90
35373;DHT22;21476;51.652;7.852;2022-07-10T14:02:51;19.40;99.90
35373;DHT22;21476;51.652;7.852;2022-07-10T14:05:16;19.20;99.90
35373;DHT22;21476;51.652;7.852;2022-07-10T14:07:42;19.00;99.90
35373;DHT22;21476;51.652;7.852;2022-07-10T14:10:08;18.80;99.90
35373;DHT22;21476;51.652;7.852;2022-07-10T14:12:34;18.70;99.90
35373;DHT22;21476;51.652;7.852;2022-07-10T14:15:00;18.40;99.90
35373;DHT22;21476;51.652;7.852;2022-07-10T14:17:26;18.10;99.90
35373;DHT22;21476;51.652;7.852;2022-07-10T14:19:53;18.10;99.90
35373;DHT22;21476;51.652;7.852;2022-07-10T14:22:19;18.10;99.90
35373;DHT22;21476;51.652;7.852;2022-07-10T14:24:45;18.30;99.90
35373;DHT22;21476;51.652;7.852;2022-07-10T14:27:10;18.50;99.90
35373;DHT22;21476;51.652;7.852;2022-07-10T14:29:36;18.70;99.90
35373;DHT22;21476;51.652;7.852;2022-07-10T14:32:02;18.80;99.90
35373;DHT22;21476;51.652;7.852;2022-07-10T14:34:28;18.80;99.90
35373;DHT22;21476;51.652;7.852;2022-07-10T14:36:54;18.90;99.90
35373;DHT22;21476;51.652;7.852;2022-07-10T14:39:20;19.00;99.90
35373;DHT22;21476;51.652;7.852;2022-07-10T14:41:46;18.70;99.90
35373;DHT22;21476;51.652;7.852;2022-07-10T14:44:12;18.50;99.90
35373;DHT22;21476;51.652;7.852;2022-07-10T14:46:37;18.40;99.90
35373;DHT22;21476;51.652;7.852;2022-07-10T14:49:03;18.70;99.90
35373;DHT22;21476;51.652;7.852;2022-07-10T14:51:29;19.00;99.90
35373;DHT22;21476;51.652;7.852;2022-07-10T14:53:55;19.20;99.90
35373;DHT22;21476;51.652;7.852;2022-07-10T14:56:22;19.40;99.90
35373;DHT22;21476;51.652;7.852;2022-07-10T14:58:48;19.60;99.90
35373;DHT22;21476;51.652;7.852;2022-07-10T15:01:14;19.60;99.90
35373;DHT22;21476;51.652;7.852;2022-07-10T15:03:41;19.70;99.90
35373;DHT22;21476;51.652;7.852;2022-07-10T15:06:07;19.60;99.90
35373;DHT22;21476;51.652;7.852;2022-07-10T15:08:33;19.40;99.90
35373;DHT22;21476;51.652;7.852;2022-07-10T15:10:59;19.30;99.90
35373;DHT22;21476;51.652;7.852;2022-07-10T15:13:26;19.20;99.90
35373;DHT22;21476;51.652;7.852;2022-07-10T15:15:52;19.20;99.90
35373;DHT22;21476;51.652;7.852;2022-07-10T15:18:18;19.00;99.90
35373;DHT22;21476;51.652;7.852;2022-07-10T15:20:44;18.80;99.90
35373;DHT22;21476;51.652;7.852;2022-07-10T15:23:11;18.60;99.90
35373;DHT22;21476;51.652;7.852;2022-07-10T15:25:36;18.10;99.90
35373;DHT22;21476;51.652;7.852;2022-07-10T15:28:10;18.00;99.90
35373;DHT22;21476;51.652;7.852;2022-07-10T15:30:37;17.80;99.90
35373;DHT22;21476;51.652;7.852;2022-07-10T15:33:04;17.70;99.90
35373;DHT22;21476;51.652;7.852;2022-07-10T15:35:31;17.70;99.90
35373;DHT22;21476;51.652;7.852;2022-07-10T15:37:56;17.80;99.90
35373;DHT22;21476;51.652;7.852;2022-07-10T15:40:25;17.80;99.90
35373;DHT22;21476;51.652;7.852;2022-07-10T15:42:51;18.00;99.90
35373;DHT22;21476;51.652;7.852;2022-07-10T15:45:16;18.10;99.90
35373;DHT22;21476;51.652;7.852;2022-07-10T15:47:42;18.20;99.90
35373;DHT22;21476;51.652;7.852;2022-07-10T15:50:08;18.10;99.90
35373;DHT22;21476;51.652;7.852;2022-07-10T15:52:33;17.90;99.90
35373;DHT22;21476;51.652;7.852;2022-07-10T15:54:59;17.80;99.90
35373;DHT22;21476;51.652;7.852;2022-07-10T15:57:24;17.70;99.90
35373;DHT22;21476;51.652;7.852;2022-07-10T15:59:50;17.50;99.90
35373;DHT22;21476;51.652;7.852;2022-07-10T16:02:16;17.40;99.90
35373;DHT22;21476;51.652;7.852;2022-07-10T16:04:41;17.30;99.90
35373;DHT22;21476;51.652;7.852;2022-07-10T16:07:07;17.20;99.90
35373;DHT22;21476;51.652;7.852;2022-07-10T16:09:33;17.30;99.90
35373;DHT22;21476;51.652;7.852;2022-07-10T16:11:59;17.40;99.90